Current Conditions
Partly Cloudy
Conditions



Pressure
1018.92 (hPa) - 30.09 (inHG)
Visibility

10.0 (km) - 6.2 (miles)
   Temperature
10  °C
50°F
7  °C
Dewpoint
82  %
 Humidity
   Wind Speed
16  km/h
9  kts
10  mph
4.5  m/s
   Wind Direction
 180°
Due South
   Airport Data
EHAM
Location Amsterdam Airport Schiphol 20 km (12.43 mi)
Metar :EHAM 241425Z 18009KT 9999 FEW013 10/07 Q1019 NOSIG
Tue 24th November 16:25 pm
   Raw Metar Info
Raw METAR is the most common format in the world for the transmission of observational weather data. It is highly standardized through the International Civil Aviation Organization (ICAO), which allows it to be understood throughout most of the world.
   API Info
Data Provided by
https://www.checkwx.com/weather/EHAM
   © Info
CSS/SVG/PHP scripts were developed by weather34.com for use in the weather34 template © 2015-2020

Guide Info provided by Metar-Wikipedia